Time;durP1;ratioP1;P1;durP2;ratioP2;P2;SDS_P1;SDS_P2;PMS_P1;PMS_P2;Temp;Humidity;BMP_temperature;BMP_pressure;BME280_temperature;BME280_humidity;BME280_pressure;Samples;Min_cycle;Max_cycle;Signal;HPM_P1;HPM_P2
2022/04/26 03:37:33;;;;;;;5.57;3.90;;;;;;;14.80;66.18;101028.28;5051453;28;20548;-63
2022/04/26 03:40:00;;;;;;;4.47;3.47;;;;;;;14.79;66.33;101029.28;5051499;28;20045;-63
2022/04/26 03:42:26;;;;;;;4.32;3.90;;;;;;;14.77;66.57;101030.34;5051667;28;20091;-63
2022/04/26 03:44:53;;;;;;;4.60;3.90;;;;;;;14.76;66.25;101026.00;5051733;28;20045;-63
2022/04/26 03:47:20;;;;;;;5.43;4.32;;;;;;;14.72;66.47;101028.00;5051684;28;20045;-63
2022/04/26 03:49:46;;;;;;;5.55;4.18;;;;;;;14.71;66.32;101028.94;5047964;28;20095;-63
2022/04/26 03:52:13;;;;;;;7.35;4.10;;;;;;;14.71;66.27;101034.22;5043148;28;20080;-63
2022/04/26 03:54:39;;;;;;;5.10;4.00;;;;;;;14.71;66.66;101036.88;5050921;28;20088;-62
2022/04/26 03:57:06;;;;;;;5.65;3.75;;;;;;;14.71;66.33;101038.69;5051181;28;20494;-63
2022/04/26 03:59:33;;;;;;;4.47;3.58;;;;;;;14.72;66.13;101043.03;5051103;28;20076;-63
2022/04/26 04:02:00;;;;;;;5.55;3.60;;;;;;;14.72;66.05;101043.03;5050927;28;20087;-63
2022/04/26 04:04:27;;;;;;;5.10;3.30;;;;;;;14.71;66.26;101042.16;5050665;28;20728;-63
2022/04/26 04:06:53;;;;;;;4.40;3.10;;;;;;;14.69;65.86;101042.28;5049501;28;20095;-63
2022/04/26 04:09:20;;;;;;;3.88;2.97;;;;;;;14.71;66.12;101046.59;5042509;28;20073;-63
2022/04/26 04:11:46;;;;;;;4.82;4.15;;;;;;;14.72;66.01;101046.50;5045857;28;20111;-63
2022/04/26 04:14:14;;;;;;;5.50;3.20;;;;;;;14.70;65.97;101053.66;5050688;28;20156;-63
2022/04/26 04:16:40;;;;;;;4.72;2.90;;;;;;;14.70;65.77;101053.66;5050663;28;20488;-63
2022/04/26 04:19:20;;;;;;;4.53;3.20;;;;;;;14.69;65.75;101058.13;5050545;28;20049;-63
2022/04/26 04:21:49;;;;;;;4.90;2.60;;;;;;;14.72;65.63;101075.53;5050549;28;20053;-62
2022/04/26 04:24:17;;;;;;;3.70;2.63;;;;;;;14.73;65.70;101076.38;5041766;28;20059;-63
2022/04/26 04:26:45;;;;;;;5.82;2.88;;;;;;;14.72;65.49;101077.34;5050574;28;20080;-63
2022/04/26 04:29:12;;;;;;;6.25;2.85;;;;;;;14.71;65.51;101071.22;5050366;28;20076;-63
2022/04/26 04:31:38;;;;;;;4.68;2.92;;;;;;;14.67;65.50;101072.38;5050274;28;20080;-63
2022/04/26 04:34:06;;;;;;;5.75;2.92;;;;;;;14.68;65.49;101074.06;5050568;28;20077;-62
2022/04/26 04:36:32;;;;;;;6.35;2.85;;;;;;;14.67;65.59;101075.03;5050335;28;20098;-63
2022/04/26 04:38:59;;;;;;;5.57;2.92;;;;;;;14.68;65.24;101080.19;5050052;28;20080;-63
2022/04/26 04:41:26;;;;;;;6.75;3.10;;;;;;;14.68;65.27;101085.47;5041638;28;20069;-63
2022/04/26 04:43:52;;;;;;;4.70;2.53;;;;;;;14.69;65.42;101092.47;5050232;28;20231;-63
2022/04/26 04:46:19;;;;;;;3.78;2.83;;;;;;;14.69;65.67;101089.81;5050359;28;20506;-63
2022/04/26 04:48:45;;;;;;;4.45;2.55;;;;;;;14.67;65.64;101094.34;5050400;28;20107;-63
2022/04/26 04:51:12;;;;;;;6.05;2.53;;;;;;;14.68;65.86;101098.69;5049648;28;20048;-63
2022/04/26 04:53:38;;;;;;;4.68;3.03;;;;;;;14.66;65.66;101103.22;5050167;28;20095;-63
2022/04/26 04:56:08;;;;;;;4.88;3.03;;;;;;;14.66;65.64;101097.09;5050006;28;20139;-63
2022/04/26 04:58:35;;;;;;;7.78;3.03;;;;;;;14.67;65.72;101102.28;5042375;28;20094;-63
2022/04/26 05:01:02;;;;;;;5.63;2.58;;;;;;;14.67;65.90;101096.97;5049740;28;20052;-63
2022/04/26 05:03:29;;;;;;;4.18;2.65;;;;;;;14.68;66.07;101096.03;5042493;28;20049;-63
2022/04/26 05:05:55;;;;;;;2.90;1.20;;;;;;;14.93;65.20;101096.16;5042793;28;20053;-63
2022/04/26 05:08:24;;;;;;;6.05;3.15;;;;;;;14.97;64.68;101094.97;5048963;28;20041;-63
2022/04/26 05:10:51;;;;;;;5.95;3.10;;;;;;;14.86;65.22;101109.78;5037193;28;20554;-63
2022/04/26 05:13:18;;;;;;;4.55;2.92;;;;;;;14.82;65.61;101103.03;5047908;28;20136;-63
2022/04/26 05:15:44;;;;;;;3.75;2.60;;;;;;;14.80;65.80;101104.06;5040105;28;20072;-63
2022/04/26 05:18:14;;;;;;;4.80;3.13;;;;;;;14.79;65.76;101103.25;5039087;28;20068;-62
2022/04/26 05:20:41;;;;;;;6.50;2.80;;;;;;;14.81;65.78;101111.91;5047393;28;20053;-62
2022/04/26 05:25:59;;;;;;;4.53;3.22;;;;;;;14.80;66.27;101109.34;5042753;28;20091;-62
2022/04/26 05:28:28;;;;;;;6.03;4.15;;;;;;;14.77;66.29;101106.94;5039281;28;20053;-62
2022/04/26 05:30:55;;;;;;;4.72;3.50;;;;;;;14.75;66.51;101112.31;5042026;28;20462;-63
2022/04/26 05:33:22;;;;;;;3.85;3.00;;;;;;;14.75;66.68;101112.31;5046173;28;20486;-63
2022/04/26 05:35:49;;;;;;;4.65;3.20;;;;;;;14.75;66.71;101108.84;5040892;28;20040;-63
2022/04/26 05:38:17;;;;;;;5.57;2.95;;;;;;;14.76;66.69;101111.38;5044035;28;20095;-62
2022/04/26 05:40:44;;;;;;;3.53;3.10;;;;;;;14.76;66.75;101118.47;5039569;28;20081;-62
2022/04/26 05:43:11;;;;;;;4.18;3.47;;;;;;;14.77;66.92;101122.78;5043818;28;20081;-63
2022/04/26 05:45:37;;;;;;;7.32;3.38;;;;;;;14.77;67.24;101120.16;5039606;28;20485;-62
2022/04/26 05:48:09;;;;;;;7.65;3.70;;;;;;;14.79;67.22;101120.88;5035446;28;20044;-63
2022/04/26 05:50:36;;;;;;;6.65;3.70;;;;;;;14.79;67.44;101118.22;5039750;28;20083;-63
2022/04/26 05:53:03;;;;;;;5.70;4.35;;;;;;;14.82;67.10;101116.22;5042041;28;20045;-63
2022/04/26 05:55:29;;;;;;;8.75;5.40;;;;;;;14.81;67.15;101125.09;5042008;28;20488;-63
2022/04/26 05:57:56;;;;;;;11.27;6.88;;;;;;;14.81;67.22;101117.19;5040688;28;20041;-63
2022/04/26 06:00:23;;;;;;;9.65;6.53;;;;;;;14.81;67.42;101125.09;5043301;28;20198;-62
2022/04/26 06:02:50;;;;;;;7.00;5.63;;;;;;;14.83;67.60;101125.00;5038955;28;20069;-63
2022/04/26 06:05:19;;;;;;;8.43;5.35;;;;;;;14.83;67.42;101125.84;5042674;28;20489;-62
2022/04/26 06:07:45;;;;;;;9.70;5.55;;;;;;;14.85;67.34;101123.09;5032805;28;20549;-63
2022/04/26 06:10:12;;;;;;;7.55;4.70;;;;;;;14.88;67.49;101130.84;5038729;28;20560;-63
2022/04/26 06:12:41;;;;;;;6.00;4.13;;;;;;;14.91;67.63;101130.59;5029563;28;20128;-62
2022/04/26 06:15:08;;;;;;;7.47;5.18;;;;;;;14.89;67.62;101135.16;5031594;28;20076;-63
2022/04/26 06:17:35;;;;;;;13.07;7.85;;;;;;;14.91;67.70;101127.13;5042629;28;20044;-63
2022/04/26 06:20:03;;;;;;;17.40;9.88;;;;;;;14.91;67.73;101133.25;5031212;28;20049;-62
2022/04/26 06:22:30;;;;;;;14.85;10.27;;;;;;;14.95;67.70;101132.09;5039116;28;20044;-62
2022/04/26 06:24:56;;;;;;;8.20;6.07;;;;;;;15.00;67.79;101139.69;5045698;28;20118;-62
2022/04/26 06:27:23;;;;;;;8.10;5.38;;;;;;;15.01;67.80;101141.41;5044372;28;20041;-62
2022/04/26 06:29:50;;;;;;;6.07;5.18;;;;;;;14.99;67.58;101144.13;5038180;28;20441;-62
2022/04/26 06:32:16;;;;;;;7.63;5.30;;;;;;;14.99;67.57;101146.75;5034676;28;20076;-62
2022/04/26 06:34:43;;;;;;;7.25;5.65;;;;;;;14.99;67.76;101143.28;5036846;28;20041;-62
2022/04/26 06:37:09;;;;;;;8.65;4.45;;;;;;;15.02;67.87;101149.22;5038668;28;20096;-62
2022/04/26 06:39:36;;;;;;;4.00;3.60;;;;;;;15.05;68.12;101142.03;5047841;28;20406;-62
2022/04/26 06:42:03;;;;;;;7.90;4.10;;;;;;;15.11;67.90;101138.94;5047344;28;20551;-62
2022/04/26 06:44:31;;;;;;;6.85;4.72;;;;;;;15.13;67.78;101144.97;5047066;28;20049;-63
2022/04/26 06:47:00;;;;;;;5.43;3.60;;;;;;;15.13;68.03;101147.63;5044071;28;20064;-64
2022/04/26 06:49:27;;;;;;;5.80;4.18;;;;;;;15.12;68.21;101143.28;5036502;28;20128;-62
2022/04/26 06:51:54;;;;;;;6.18;4.55;;;;;;;15.07;68.31;101140.97;5033691;28;20037;-63
2022/04/26 06:54:20;;;;;;;6.18;4.78;;;;;;;15.07;68.76;101151.56;5046136;28;20041;-62
2022/04/26 06:56:47;;;;;;;8.88;5.10;;;;;;;15.05;68.50;101144.69;5048896;28;20073;-63
2022/04/26 06:59:14;;;;;;;8.85;4.97;;;;;;;15.05;68.66;101157.91;5051251;28;20084;-63
2022/04/26 07:01:40;;;;;;;6.72;4.32;;;;;;;15.02;68.89;101146.56;5051366;28;20506;-64
2022/04/26 07:04:08;;;;;;;5.88;4.22;;;;;;;15.04;69.01;101151.75;5051109;28;20053;-62
2022/04/26 07:06:38;;;;;;;5.88;4.20;;;;;;;15.05;69.14;101148.16;5050506;28;20037;-63
2022/04/26 07:09:05;;;;;;;4.82;4.28;;;;;;;15.04;69.01;101149.09;5039998;28;20053;-63
2022/04/26 07:11:32;;;;;;;6.70;4.43;;;;;;;15.02;69.27;101148.38;5043531;28;20041;-63
2022/04/26 07:13:59;;;;;;;7.22;4.57;;;;;;;15.05;69.13;101144.69;5044488;28;20497;-63
2022/04/26 07:16:26;;;;;;;5.70;4.07;;;;;;;15.09;68.71;101144.34;5045654;28;20045;-63
2022/04/26 07:18:53;;;;;;;4.97;3.97;;;;;;;15.15;68.69;101146.56;5050856;28;20040;-64
2022/04/26 07:21:20;;;;;;;4.57;3.90;;;;;;;15.18;68.61;101148.16;5051855;28;20067;-63
2022/04/26 07:23:46;;;;;;;6.22;3.78;;;;;;;15.21;68.58;101147.09;5052028;28;20098;-63
2022/04/26 07:26:14;;;;;;;6.32;3.85;;;;;;;15.21;68.59;101155.03;5046833;28;20087;-63
2022/04/26 07:28:40;;;;;;;6.38;4.32;;;;;;;15.19;68.86;101153.31;5045880;28;20080;-63
2022/04/26 07:31:08;;;;;;;6.03;3.83;;;;;;;15.20;68.76;101143.59;5051489;28;20064;-62
2022/04/26 07:36:22;;;;;;;7.93;3.33;;;;;;;15.33;68.45;101156.81;5051344;28;20048;-62
2022/04/26 07:38:50;;;;;;;5.50;3.65;;;;;;;15.39;67.99;101152.88;5051607;28;20057;-63
2022/04/26 07:41:17;;;;;;;4.88;3.28;;;;;;;15.47;67.68;101147.91;5050883;28;20052;-62
2022/04/26 07:43:44;;;;;;;6.18;3.70;;;;;;;15.57;67.53;101143.66;5049827;28;20045;-62
2022/04/26 07:46:15;;;;;;;5.97;3.53;;;;;;;15.77;66.97;101141.34;5050921;28;20107;-63
2022/04/26 07:48:43;;;;;;;5.68;3.97;;;;;;;15.94;66.29;101137.53;5050709;28;20048;-64
2022/04/26 07:51:11;;;;;;;6.13;3.67;;;;;;;16.14;65.92;101144.84;5050505;28;20051;-63
2022/04/26 07:53:38;;;;;;;5.53;3.67;;;;;;;16.23;65.50;101142.50;5043916;28;20064;-63
2022/04/26 07:56:06;;;;;;;5.63;3.85;;;;;;;16.32;65.37;101149.75;5041984;28;20041;-63
2022/04/26 07:58:32;;;;;;;5.43;3.47;;;;;;;16.46;64.79;101149.53;5041714;28;20052;-64
2022/04/26 08:01:00;;;;;;;4.30;2.85;;;;;;;16.65;64.51;101148.16;5037311;28;20592;-63
2022/04/26 08:03:27;;;;;;;3.97;2.35;;;;;;;16.92;63.46;101147.03;5043154;28;20045;-64
2022/04/26 08:05:54;;;;;;;5.82;2.50;;;;;;;17.13;62.74;101148.03;5037002;28;20045;-64
2022/04/26 08:08:21;;;;;;;5.35;2.15;;;;;;;17.14;62.53;101154.16;5041666;28;20040;-62
2022/04/26 08:10:55;;;;;;;3.70;2.20;;;;;;;17.18;62.58;101152.13;5046734;28;20451;-63
2022/04/26 08:13:21;;;;;;;7.43;2.00;;;;;;;17.23;62.65;101161.41;5035357;28;20092;-63
2022/04/26 08:15:48;;;;;;;3.33;2.00;;;;;;;17.24;62.06;101160.47;5031860;28;20072;-63
2022/04/26 08:18:15;;;;;;;4.28;2.35;;;;;;;17.27;62.24;101156.72;5035246;28;20073;-63
2022/04/26 08:20:44;;;;;;;4.10;2.05;;;;;;;17.33;62.10;101155.38;5039501;28;20639;-63
2022/04/26 08:23:11;;;;;;;3.38;1.75;;;;;;;17.33;61.88;101156.25;5035294;28;20050;-64
2022/04/26 08:28:24;;;;;;;7.80;2.70;;;;;;;17.42;61.23;101155.50;5035058;28;20041;-63
2022/04/26 08:30:51;;;;;;;4.05;2.08;;;;;;;17.50;61.12;101154.06;5038924;28;20378;-63
2022/04/26 08:33:18;;;;;;;3.10;2.35;;;;;;;17.72;60.44;101153.16;5034776;28;20085;-63
2022/04/26 08:35:45;;;;;;;4.68;2.17;;;;;;;17.72;60.55;101155.81;5037173;28;20053;-63
2022/04/26 08:38:31;;;;;;;5.60;2.33;;;;;;;17.72;60.59;101161.13;5034726;28;20046;-63
2022/04/26 08:40:58;;;;;;;6.22;2.10;;;;;;;17.60;60.96;101158.50;5037952;28;20045;-63
2022/04/26 08:43:27;;;;;;;4.65;2.10;;;;;;;17.46;61.13;101162.25;5035900;28;20103;-63
2022/04/26 08:45:58;;;;;;;7.03;2.22;;;;;;;17.29;61.79;101168.03;5036286;28;20123;-63
2022/04/26 08:51:13;;;;;;;5.68;2.13;;;;;;;17.05;61.76;101179.59;5037889;28;20079;-63
2022/04/26 08:53:39;;;;;;;4.30;2.47;;;;;;;17.06;61.93;101177.78;5034682;28;20105;-63
2022/04/26 08:56:06;;;;;;;7.65;2.42;;;;;;;17.08;61.54;101179.34;5040032;28;20053;-63
2022/04/26 08:58:34;;;;;;;6.30;2.00;;;;;;;17.14;61.37;101173.59;5040681;28;20047;-63
2022/04/26 09:01:18;;;;;;;4.68;2.15;;;;;;;17.18;61.00;101171.53;5039868;28;20049;-63
2022/04/26 09:03:54;;;;;;;3.20;1.90;;;;;;;17.17;61.42;101177.81;5045797;28;20084;-63
2022/04/26 09:06:43;;;;;;;4.30;2.10;;;;;;;17.16;61.15;101176.09;5041651;28;20045;-63
2022/04/26 09:09:15;;;;;;;4.88;2.00;;;;;;;17.12;61.19;101178.16;5039116;28;20047;-62
2022/04/26 09:11:43;;;;;;;3.92;2.22;;;;;;;17.03;61.29;101175.38;5044088;28;20041;-62
2022/04/26 09:14:32;;;;;;;5.03;2.03;;;;;;;17.00;61.50;101184.44;5047918;28;20072;-63
2022/04/26 09:17:10;;;;;;;5.03;2.67;;;;;;;16.99;61.34;101180.06;5046019;28;20098;-63
2022/04/26 09:20:01;;;;;;;4.32;2.58;;;;;;;16.95;61.77;101179.47;5038087;28;20057;-63
2022/04/26 09:22:28;;;;;;;4.22;2.60;;;;;;;16.93;61.81;101180.53;5036460;28;20045;-63
2022/04/26 09:24:58;;;;;;;3.60;2.50;;;;;;;16.91;61.61;101171.84;5047543;28;20048;-63
2022/04/26 09:27:27;;;;;;;4.65;2.28;;;;;;;16.93;61.71;101169.94;5036856;28;20099;-63
2022/04/26 09:29:53;;;;;;;5.30;2.60;;;;;;;16.95;61.31;101175.94;5040060;28;20069;-62
2022/04/26 09:32:20;;;;;;;4.20;2.47;;;;;;;17.02;61.13;101174.53;5032379;28;20037;-62
2022/04/26 09:34:47;;;;;;;4.65;2.67;;;;;;;17.10;61.09;101176.56;5041432;28;20080;-63
2022/04/26 09:37:13;;;;;;;6.45;3.22;;;;;;;17.17;61.10;101171.66;5034851;28;20106;-62
2022/04/26 09:39:58;;;;;;;5.82;2.95;;;;;;;17.31;60.63;101174.06;5031116;28;20065;-63
2022/04/26 09:42:33;;;;;;;5.60;2.83;;;;;;;17.42;59.95;101173.22;5035276;28;20132;-63
2022/04/26 09:45:08;;;;;;;7.78;3.05;;;;;;;17.46;59.79;101170.19;5045714;28;20440;-63
2022/04/26 09:47:42;;;;;;;5.63;3.20;;;;;;;17.56;59.94;101172.13;5045418;28;20065;-63
2022/04/26 09:50:16;;;;;;;5.80;3.33;;;;;;;17.67;59.76;101164.16;5039262;28;20045;-63
2022/04/26 09:52:43;;;;;;;6.13;2.95;;;;;;;17.73;59.16;101165.47;5040580;28;20092;-63
2022/04/26 09:55:13;;;;;;;6.35;2.28;;;;;;;17.71;59.45;101162.97;5035481;28;20083;-62
2022/04/26 09:57:42;;;;;;;5.07;2.60;;;;;;;17.86;59.11;101163.50;5038314;28;20098;-62
2022/04/26 10:00:12;;;;;;;4.63;2.17;;;;;;;17.87;58.99;101165.19;5032849;28;20254;-63
2022/04/26 10:02:53;;;;;;;5.18;2.30;;;;;;;17.86;58.88;101162.69;5040881;28;20057;-62
2022/04/26 10:05:21;;;;;;;6.53;1.90;;;;;;;17.79;58.93;101157.03;5028289;28;20041;-62
2022/04/26 10:07:51;;;;;;;5.20;2.50;;;;;;;17.73;58.97;101158.34;5039409;28;20091;-62
2022/04/26 10:10:20;;;;;;;4.80;2.58;;;;;;;17.60;59.44;101162.97;5031875;28;21050;-62
2022/04/26 10:13:31;;;;;;;5.82;2.30;;;;;;;17.54;59.40;101158.16;5037715;28;20045;-62
2022/04/26 10:15:35;;;;;;;5.03;2.20;;;;;;;17.79;58.73;101157.84;5045627;28;20045;-62
2022/04/26 10:18:29;;;;;;;6.88;2.85;;;;;;;18.49;56.90;101154.03;5039343;28;20069;-62
2022/04/26 10:20:55;;;;;;;4.07;2.10;;;;;;;18.19;57.84;101151.13;5031304;28;20088;-62
2022/04/26 10:23:22;;;;;;;5.57;2.10;;;;;;;17.97;58.45;101152.06;5030724;28;20081;-62
2022/04/26 10:26:21;;;;;;;3.42;1.92;;;;;;;17.85;58.63;101151.22;5046677;28;20091;-62
2022/04/26 10:29:12;;;;;;;10.07;2.22;;;;;;;17.94;58.39;101147.84;5047295;28;20080;-60
2022/04/26 10:31:46;;;;;;;6.05;1.52;;;;;;;18.22;57.51;101144.72;5029434;28;20471;-62
2022/04/26 10:34:28;;;;;;;5.43;2.22;;;;;;;18.43;56.96;101142.94;5034000;28;20467;-62
2022/04/26 10:37:21;;;;;;;5.00;2.20;;;;;;;18.47;56.58;101142.69;5048200;28;20499;-63
2022/04/26 10:40:02;;;;;;;5.80;2.40;;;;;;;18.64;56.13;101136.78;5048621;28;20099;-62
2022/04/26 10:42:31;;;;;;;3.15;2.20;;;;;;;19.12;55.02;101138.03;5047865;28;20052;-62
2022/04/26 10:45:06;;;;;;;4.68;2.70;;;;;;;19.85;53.47;101137.88;5048329;28;20075;-62
2022/04/26 10:47:33;;;;;;;5.20;2.72;;;;;;;19.83;53.69;101134.53;5039419;28;20041;-62
2022/04/26 10:50:02;;;;;;;5.13;2.83;;;;;;;19.83;53.52;101137.19;5039985;28;20489;-63
2022/04/26 10:52:35;;;;;;;6.65;2.83;;;;;;;19.70;53.99;101132.06;5042187;28;20045;-63
2022/04/26 10:55:04;;;;;;;3.72;2.30;;;;;;;20.10;53.15;101133.00;5032110;28;20053;-63
2022/04/26 10:57:33;;;;;;;6.63;2.83;;;;;;;20.30;52.48;101141.00;5032425;28;20081;-63
2022/04/26 11:00:28;;;;;;;4.70;2.65;;;;;;;21.02;50.56;101128.13;5030920;28;20045;-64
2022/04/26 11:03:03;;;;;;;5.38;2.63;;;;;;;20.56;51.86;101128.75;5034162;28;20041;-62
2022/04/26 11:05:32;;;;;;;3.95;2.63;;;;;;;20.20;52.73;101125.00;5046512;28;20133;-63
2022/04/26 11:08:01;;;;;;;7.22;2.70;;;;;;;19.90;53.48;101126.81;5045007;28;20073;-62
2022/04/26 11:11:00;;;;;;;5.00;3.47;;;;;;;19.83;53.58;101126.53;5037960;28;20081;-62
2022/04/26 11:13:20;;;;;;;4.15;2.53;;;;;;;19.47;54.49;101127.97;5036082;28;20379;-63
2022/04/26 11:15:46;;;;;;;5.03;2.90;;;;;;;19.19;55.08;101130.41;5040265;28;20049;-63
2022/04/26 11:18:20;;;;;;;6.88;3.08;;;;;;;19.09;55.88;101133.84;5046128;28;20045;-62
2022/04/26 11:20:47;;;;;;;7.97;2.85;;;;;;;19.07;56.42;101127.81;5048771;28;20080;-62
2022/04/26 11:28:51;;;;;;;63.92;36.63;;;;;;;19.10;57.47;101124.06;5040970;28;20046;-62
2022/04/26 11:31:18;;;;;;;24.30;15.18;;;;;;;19.18;57.22;101118.88;5036303;28;20512;-62
2022/04/26 11:33:49;;;;;;;66.82;39.20;;;;;;;19.22;56.96;101117.66;5045456;28;20072;-62
2022/04/26 11:36:16;;;;;;;8.32;4.90;;;;;;;19.42;56.61;101115.06;5041985;28;20041;-61
2022/04/26 11:38:55;;;;;;;36.70;22.40;;;;;;;19.55;55.41;101106.81;5041885;28;20053;-62
2022/04/26 11:41:22;;;;;;;21.48;12.75;;;;;;;19.45;55.54;101108.63;5047101;28;20103;-61
2022/04/26 11:43:48;;;;;;;7.72;4.72;;;;;;;19.32;56.01;101103.53;5035993;28;20103;-62
2022/04/26 11:46:15;;;;;;;7.45;4.85;;;;;;;19.32;55.66;101106.22;5041358;28;20041;-62
2022/04/26 11:48:47;;;;;;;25.75;13.68;;;;;;;19.28;55.38;101102.16;5045316;28;20049;-62
2022/04/26 11:51:14;;;;;;;26.70;13.25;;;;;;;19.38;55.18;101103.84;5036003;28;20461;-62
2022/04/26 11:53:40;;;;;;;17.40;9.70;;;;;;;19.51;55.02;101097.44;5035907;28;20084;-62
2022/04/26 11:56:07;;;;;;;11.30;6.63;;;;;;;19.54;54.93;101105.13;5037987;28;20532;-62
2022/04/26 11:58:34;;;;;;;9.88;5.90;;;;;;;19.64;54.29;101102.50;5038526;28;20042;-62
2022/04/26 12:01:13;;;;;;;8.85;5.82;;;;;;;20.07;53.21;101101.31;5036137;28;20049;-62
2022/04/26 12:03:49;;;;;;;7.00;4.75;;;;;;;20.74;51.33;101097.88;5036259;28;20076;-63
2022/04/26 12:06:19;;;;;;;14.60;9.80;;;;;;;21.12;50.52;101093.38;5038923;28;20103;-63
2022/04/26 12:08:49;;;;;;;9.55;5.70;;;;;;;21.03;50.29;101095.09;5047031;28;20088;-63
2022/04/26 12:11:21;;;;;;;11.38;5.95;;;;;;;20.46;51.62;101092.44;5039511;28;20045;-62
2022/04/26 12:14:08;;;;;;;16.30;8.43;;;;;;;20.30;52.19;101087.69;5040870;28;20084;-62
2022/04/26 12:16:41;;;;;;;9.70;6.13;;;;;;;20.28;51.57;101084.31;5037804;28;20073;-62
2022/04/26 12:19:09;;;;;;;9.70;5.63;;;;;;;20.34;51.64;101081.94;5042809;28;20156;-62
2022/04/26 12:21:54;;;;;;;14.15;6.90;;;;;;;20.06;52.34;101079.16;5038106;28;20103;-62
2022/04/26 12:24:22;;;;;;;;;;;;;;;19.98;52.49;101080.84;5049253;28;20136;-62
2022/04/26 12:27:12;;;;;;;10.52;6.38;;;;;;;19.80;53.12;101072.69;5045478;28;19990;-61
2022/04/26 12:29:41;;;;;;;14.18;6.65;;;;;;;19.63;53.11;101072.38;5039563;28;20501;-62
2022/04/26 12:32:09;;;;;;;12.13;6.07;;;;;;;19.69;52.87;101066.50;5046491;28;20476;-62
2022/04/26 12:34:45;;;;;;;12.18;6.78;;;;;;;19.73;52.90;101065.25;5043063;28;20493;-62
2022/04/26 12:37:22;;;;;;;13.35;5.97;;;;;;;19.88;52.56;101068.38;5035540;28;20069;-62
2022/04/26 12:39:54;;;;;;;13.43;6.72;;;;;;;20.00;52.07;101055.75;5037708;28;20056;-61
2022/04/26 12:42:27;;;;;;;9.70;5.63;;;;;;;21.16;49.15;101046.72;5042834;28;20141;-61
2022/04/26 12:44:56;;;;;;;11.68;5.65;;;;;;;21.32;48.75;101052.25;5035473;28;20483;-61
2022/04/26 12:50:28;;;;;;;8.27;5.47;;;;;;;21.51;48.46;101040.59;5034261;28;20100;-61
2022/04/26 12:53:06;;;;;;;12.23;6.22;;;;;;;20.91;49.99;101043.75;5034155;28;20094;-61
2022/04/26 12:55:36;;;;;;;7.68;5.30;;;;;;;20.56;50.52;101043.44;5039500;28;20098;-60
2022/04/26 12:58:17;;;;;;;9.07;5.07;;;;;;;21.08;49.30;101034.13;5046416;28;20084;-61
2022/04/26 13:00:55;;;;;;;8.80;5.60;;;;;;;21.27;48.75;101030.50;5043506;28;20037;-61
2022/04/26 13:03:22;;;;;;;10.50;5.85;;;;;;;20.92;49.94;101029.44;5038949;28;20498;-61
2022/04/26 13:05:51;;;;;;;8.45;4.95;;;;;;;20.50;51.03;101027.19;5039399;28;20049;-61
2022/04/26 13:08:20;;;;;;;10.32;6.15;;;;;;;20.18;51.29;101031.06;5042705;28;20049;-61
2022/04/26 13:10:48;;;;;;;8.65;4.93;;;;;;;19.96;51.40;101022.38;5039399;28;20076;-61
2022/04/26 13:13:15;;;;;;;13.52;5.97;;;;;;;19.86;51.52;101017.06;5039244;28;20037;-61
2022/04/26 13:15:44;;;;;;;16.95;7.13;;;;;;;19.83;51.06;101011.16;5036130;28;20055;-62
2022/04/26 13:18:12;;;;;;;7.75;4.75;;;;;;;19.90;51.05;101005.13;5047446;28;20402;-61
2022/04/26 13:20:39;;;;;;;9.48;5.15;;;;;;;20.19;50.25;101006.09;5044917;28;20059;-62
2022/04/26 13:23:14;;;;;;;7.22;5.57;;;;;;;20.76;49.30;100987.41;5036248;28;20098;-62
2022/04/26 13:25:42;;;;;;;12.95;6.15;;;;;;;20.26;50.45;101001.03;5046567;28;20473;-62
2022/04/26 13:28:10;;;;;;;7.20;5.40;;;;;;;20.00;51.42;100998.97;5041397;28;20498;-61
2022/04/26 13:30:38;;;;;;;9.20;6.20;;;;;;;19.79;51.88;100994.59;5048138;28;20092;-61
2022/04/26 13:33:05;;;;;;;13.55;6.45;;;;;;;19.64;52.15;100996.00;5048970;28;20049;-61
2022/04/26 13:35:33;;;;;;;11.13;5.80;;;;;;;19.49;52.27;100990.25;5048995;28;20145;-61
2022/04/26 13:38:01;;;;;;;10.68;6.05;;;;;;;19.28;52.50;100985.06;5048997;28;20056;-61
2022/04/26 13:40:28;;;;;;;12.65;6.53;;;;;;;19.08;52.98;100985.88;5043547;28;20456;-61
2022/04/26 13:42:56;;;;;;;10.18;5.82;;;;;;;18.95;53.54;100985.28;5044033;28;20137;-61
2022/04/26 13:45:24;;;;;;;10.10;5.15;;;;;;;18.84;53.52;100988.00;5041058;28;20053;-61
2022/04/26 13:47:51;;;;;;;14.20;6.10;;;;;;;18.77;53.48;100982.38;5046291;28;20497;-61
2022/04/26 13:50:18;;;;;;;10.00;5.40;;;;;;;18.69;53.59;100972.44;5048411;28;20045;-61
2022/04/26 13:52:45;;;;;;;19.23;6.80;;;;;;;18.64;53.45;100979.97;5048780;28;20110;-61
2022/04/26 13:55:17;;;;;;;13.55;5.80;;;;;;;18.59;53.64;100983.00;5048567;28;20045;-62
2022/04/26 13:57:44;;;;;;;14.35;5.85;;;;;;;18.56;53.95;100987.75;5042760;28;20053;-61
2022/04/26 14:00:13;;;;;;;21.42;10.85;;;;;;;18.51;54.23;100995.28;5048591;28;20041;-61
2022/04/26 14:02:41;;;;;;;16.48;8.70;;;;;;;18.40;55.22;101028.09;5045279;28;20111;-61
2022/04/26 14:05:08;;;;;;;12.38;6.43;;;;;;;17.91;57.27;101017.94;5040865;28;20490;-61
2022/04/26 14:07:36;;;;;;;10.43;5.85;;;;;;;17.44;59.10;101022.72;5048211;28;20497;-61
2022/04/26 14:10:03;;;;;;;15.13;5.13;;;;;;;17.43;59.37;101021.03;5034630;28;20084;-61
2022/04/26 14:12:30;;;;;;;11.80;5.20;;;;;;;17.25;60.58;101026.84;5048442;28;20048;-61
2022/04/26 14:23:12;;;;;;;11.77;4.10;;;;;;;16.30;65.03;101064.25;5029974;28;20481;-60
2022/04/26 14:25:38;;;;;;;16.60;9.18;;;;;;;16.30;65.59;101032.47;5030462;28;20448;-61
2022/04/26 14:28:05;;;;;;;33.42;17.15;;;;;;;16.53;65.52;101043.97;5029753;28;20148;-61
2022/04/26 14:30:32;;;;;;;40.63;33.30;;;;;;;16.50;65.75;101049.50;5032586;28;20076;-61
2022/04/26 14:33:08;;;;;;;18.60;12.23;;;;;;;16.49;66.32;101046.00;5028735;28;20747;-61
2022/04/26 14:35:35;;;;;;;7.10;5.20;;;;;;;16.65;66.12;101031.56;5030333;28;20138;-61
2022/04/26 14:38:02;;;;;;;6.35;3.95;;;;;;;16.81;66.14;101026.75;5042500;28;20459;-61
2022/04/26 14:40:29;;;;;;;5.43;3.65;;;;;;;16.91;66.58;101024.28;5029530;28;20049;-60
2022/04/26 14:43:02;;;;;;;6.07;3.97;;;;;;;16.95;66.99;101020.41;5029400;28;20054;-60
2022/04/26 14:45:32;;;;;;;7.35;4.20;;;;;;;16.99;67.40;101023.66;5029900;28;20046;-61
2022/04/26 14:48:00;;;;;;;6.32;3.92;;;;;;;16.98;67.80;101017.50;5031764;28;20041;-60
2022/04/26 14:50:30;;;;;;;6.88;4.07;;;;;;;16.99;67.88;101015.69;5029167;28;20045;-61
2022/04/26 14:52:56;;;;;;;5.03;2.97;;;;;;;17.02;68.04;101009.31;5033576;28;20419;-61
2022/04/26 14:55:23;;;;;;;5.03;3.13;;;;;;;17.06;68.19;101006.28;5033547;28;20128;-61
2022/04/26 14:57:49;;;;;;;5.97;2.88;;;;;;;17.06;68.53;100997.50;5034463;28;20103;-61
2022/04/26 15:00:16;;;;;;;6.10;2.80;;;;;;;17.04;68.31;100996.75;5033599;28;20037;-61
2022/04/26 15:02:43;;;;;;;5.10;2.50;;;;;;;17.11;68.26;100990.84;5033351;28;20445;-61
2022/04/26 15:05:13;;;;;;;4.43;2.58;;;;;;;17.25;68.32;100996.84;5033451;28;20045;-60
2022/04/26 15:10:27;;;;;;;4.63;3.27;;;;;;;18.26;65.17;100995.56;5035980;28;20081;-61
2022/04/26 15:18:23;;;;;;;7.18;3.30;;;;;;;18.43;66.02;100996.78;5044032;28;20091;-60
2022/04/26 15:20:50;;;;;;;4.72;3.40;;;;;;;18.49;65.84;100998.06;5051258;28;20053;-61
2022/04/26 15:23:18;;;;;;;5.07;3.08;;;;;;;18.21;66.49;101004.94;5051975;28;20057;-61
2022/04/26 15:25:52;;;;;;;5.20;3.30;;;;;;;18.03;67.07;101002.84;5051900;28;20041;-60
2022/04/26 15:28:19;;;;;;;3.92;2.83;;;;;;;17.91;67.11;100995.88;5052230;28;20432;-61
2022/04/26 15:30:48;;;;;;;5.38;2.60;;;;;;;17.85;67.17;101004.34;5051746;28;20041;-61
2022/04/26 15:33:15;;;;;;;3.63;2.72;;;;;;;17.81;67.38;101005.59;5051449;28;20114;-61
2022/04/26 15:35:42;;;;;;;2.92;2.63;;;;;;;17.78;66.97;101004.03;5041655;28;20136;-61
2022/04/26 15:38:12;;;;;;;7.15;3.70;;;;;;;17.79;67.03;101006.56;5051484;28;20045;-61
2022/04/26 15:40:40;;;;;;;4.63;3.20;;;;;;;17.79;67.21;101001.25;5051324;28;20128;-61
2022/04/26 15:43:08;;;;;;;4.40;3.28;;;;;;;17.80;67.50;100999.41;5051522;28;20037;-60
2022/04/26 15:45:36;;;;;;;3.75;3.17;;;;;;;17.79;67.31;100990.63;5051228;28;20056;-61
2022/04/26 15:48:04;;;;;;;4.65;3.15;;;;;;;17.80;67.16;100988.78;5051229;28;20485;-61